Saint Anthony, Canada
Current Conditions -  °F | °C
As of 6:00 AM on Sunday 23 Nov 2014 (Local Time) from CYAY Reporting Station
Overcast Overcast  
Wind Chill: -14°   Ceiling: 9000
Heat Index: -6°   Visibility: 9mi
Dew Point: -10°   Wind: 20mph
Humidity: 74%   Direction: 270°W
Pressure: 29.44"   Gusts: NA
Location:  51.48°N, 55.81°W
Report Text: CYAY 230900Z AUTO 27017KT 9SM FEW036 OVC090 M06/M10 A2944 RMK SLP973
Loading
Personal Weather Stations






























Interactive Weather Map New forecast layout! Learn more

10-Day Weather Forecast

Advertisements
Track Severe Weather on mobile